sensor_id;sensor_type;location;lat;lon;timestamp;temperature;humidity
4904;DHT22;2467;48.142;11.616;2024-02-16T00:00:05;9.70;99.90
4904;DHT22;2467;48.142;11.616;2024-02-16T00:00:37;9.70;99.90
4904;DHT22;2467;48.142;11.616;2024-02-16T00:01:10;9.80;99.90
4904;DHT22;2467;48.142;11.616;2024-02-16T00:01:45;9.80;99.90
4904;DHT22;2467;48.142;11.616;2024-02-16T00:02:17;9.80;99.90
4904;DHT22;2467;48.142;11.616;2024-02-16T00:02:49;9.80;99.90
4904;DHT22;2467;48.142;11.616;2024-02-16T00:03:21;9.80;99.90
4904;DHT22;2467;48.142;11.616;2024-02-16T00:03:54;9.80;99.90
4904;DHT22;2467;48.142;11.616;2024-02-16T00:04:26;9.80;99.90
4904;DHT22;2467;48.142;11.616;2024-02-16T00:04:59;9.80;99.90
4904;DHT22;2467;48.142;11.616;2024-02-16T00:05:31;9.80;99.90
4904;DHT22;2467;48.142;11.616;2024-02-16T00:06:05;9.80;99.90
4904;DHT22;2467;48.142;11.616;2024-02-16T00:06:38;9.80;99.90
4904;DHT22;2467;48.142;11.616;2024-02-16T00:07:10;9.70;99.90
4904;DHT22;2467;48.142;11.616;2024-02-16T00:07:42;9.70;99.90
4904;DHT22;2467;48.142;11.616;2024-02-16T00:08:15;9.80;99.90
4904;DHT22;2467;48.142;11.616;2024-02-16T00:08:48;9.80;99.90
4904;DHT22;2467;48.142;11.616;2024-02-16T00:09:20;9.80;99.90
4904;DHT22;2467;48.142;11.616;2024-02-16T00:09:52;9.70;99.90
4904;DHT22;2467;48.142;11.616;2024-02-16T00:10:24;9.80;99.90
4904;DHT22;2467;48.142;11.616;2024-02-16T00:10:57;9.70;99.90
4904;DHT22;2467;48.142;11.616;2024-02-16T00:11:30;9.70;99.90
4904;DHT22;2467;48.142;11.616;2024-02-16T00:12:02;9.70;99.90
4904;DHT22;2467;48.142;11.616;2024-02-16T00:12:35;9.70;99.90
4904;DHT22;2467;48.142;11.616;2024-02-16T00:13:08;9.70;99.90
4904;DHT22;2467;48.142;11.616;2024-02-16T00:13:40;9.70;99.90
4904;DHT22;2467;48.142;11.616;2024-02-16T00:14:12;9.70;99.90
4904;DHT22;2467;48.142;11.616;2024-02-16T00:14:44;9.70;99.90
4904;DHT22;2467;48.142;11.616;2024-02-16T00:15:18;9.70;99.90
4904;DHT22;2467;48.142;11.616;2024-02-16T00:15:50;9.70;99.90
4904;DHT22;2467;48.142;11.616;2024-02-16T00:16:22;9.70;99.90
4904;DHT22;2467;48.142;11.616;2024-02-16T00:16:54;9.70;99.90
4904;DHT22;2467;48.142;11.616;2024-02-16T00:17:28;9.70;99.90
4904;DHT22;2467;48.142;11.616;2024-02-16T00:18:00;9.70;99.90
4904;DHT22;2467;48.142;11.616;2024-02-16T00:18:32;9.70;99.90
4904;DHT22;2467;48.142;11.616;2024-02-16T00:19:05;9.70;99.90
4904;DHT22;2467;48.142;11.616;2024-02-16T00:19:37;9.70;99.90
4904;DHT22;2467;48.142;11.616;2024-02-16T00:20:09;9.70;99.90
4904;DHT22;2467;48.142;11.616;2024-02-16T00:20:44;9.70;99.90
4904;DHT22;2467;48.142;11.616;2024-02-16T00:21:19;9.70;99.90
4904;DHT22;2467;48.142;11.616;2024-02-16T00:21:51;9.70;99.90
4904;DHT22;2467;48.142;11.616;2024-02-16T00:22:23;9.70;99.90
4904;DHT22;2467;48.142;11.616;2024-02-16T00:22:55;9.70;99.90
4904;DHT22;2467;48.142;11.616;2024-02-16T00:23:28;9.70;99.90
4904;DHT22;2467;48.142;11.616;2024-02-16T00:24:00;9.70;99.90
4904;DHT22;2467;48.142;11.616;2024-02-16T00:24:34;9.70;99.90
4904;DHT22;2467;48.142;11.616;2024-02-16T00:25:08;9.70;99.90
4904;DHT22;2467;48.142;11.616;2024-02-16T00:25:40;9.70;99.90
4904;DHT22;2467;48.142;11.616;2024-02-16T00:26:13;9.70;99.90
4904;DHT22;2467;48.142;11.616;2024-02-16T00:26:45;9.70;99.90
4904;DHT22;2467;48.142;11.616;2024-02-16T00:27:18;9.70;99.90
4904;DHT22;2467;48.142;11.616;2024-02-16T00:27:50;9.70;99.90
4904;DHT22;2467;48.142;11.616;2024-02-16T00:28:24;9.60;99.90
4904;DHT22;2467;48.142;11.616;2024-02-16T00:28:56;9.60;99.90
4904;DHT22;2467;48.142;11.616;2024-02-16T00:29:29;9.60;99.90
4904;DHT22;2467;48.142;11.616;2024-02-16T00:30:03;9.60;99.90
4904;DHT22;2467;48.142;11.616;2024-02-16T00:30:35;9.60;99.90
4904;DHT22;2467;48.142;11.616;2024-02-16T00:31:08;9.50;99.90
4904;DHT22;2467;48.142;11.616;2024-02-16T00:31:40;9.50;99.90
4904;DHT22;2467;48.142;11.616;2024-02-16T00:32:14;9.50;99.90
4904;DHT22;2467;48.142;11.616;2024-02-16T00:32:46;9.50;99.90
4904;DHT22;2467;48.142;11.616;2024-02-16T00:33:19;9.60;99.90
4904;DHT22;2467;48.142;11.616;2024-02-16T00:33:51;9.50;99.90
4904;DHT22;2467;48.142;11.616;2024-02-16T00:34:24;9.50;99.90
4904;DHT22;2467;48.142;11.616;2024-02-16T00:34:57;9.40;99.90
4904;DHT22;2467;48.142;11.616;2024-02-16T00:35:29;9.40;99.90
4904;DHT22;2467;48.142;11.616;2024-02-16T00:36:05;9.40;99.90
4904;DHT22;2467;48.142;11.616;2024-02-16T00:36:39;9.40;99.90
4904;DHT22;2467;48.142;11.616;2024-02-16T00:37:12;9.30;99.90
4904;DHT22;2467;48.142;11.616;2024-02-16T00:37:44;9.30;99.90
4904;DHT22;2467;48.142;11.616;2024-02-16T00:38:17;9.30;99.90
4904;DHT22;2467;48.142;11.616;2024-02-16T00:38:50;9.30;99.90
4904;DHT22;2467;48.142;11.616;2024-02-16T00:39:22;9.30;99.90
4904;DHT22;2467;48.142;11.616;2024-02-16T00:39:54;9.40;99.90
4904;DHT22;2467;48.142;11.616;2024-02-16T00:40:26;9.40;99.90
4904;DHT22;2467;48.142;11.616;2024-02-16T00:40:59;9.30;99.90
4904;DHT22;2467;48.142;11.616;2024-02-16T00:41:32;9.30;99.90
4904;DHT22;2467;48.142;11.616;2024-02-16T00:42:04;9.30;99.90
4904;DHT22;2467;48.142;11.616;2024-02-16T00:42:36;9.30;99.90
4904;DHT22;2467;48.142;11.616;2024-02-16T00:43:09;9.40;99.90
4904;DHT22;2467;48.142;11.616;2024-02-16T00:43:41;9.40;99.90
4904;DHT22;2467;48.142;11.616;2024-02-16T00:44:16;9.40;99.90
4904;DHT22;2467;48.142;11.616;2024-02-16T00:44:49;9.40;99.90
4904;DHT22;2467;48.142;11.616;2024-02-16T00:45:22;9.40;99.90
4904;DHT22;2467;48.142;11.616;2024-02-16T00:45:54;9.40;99.90
4904;DHT22;2467;48.142;11.616;2024-02-16T00:46:27;9.40;99.90
4904;DHT22;2467;48.142;11.616;2024-02-16T00:46:59;9.40;99.90
4904;DHT22;2467;48.142;11.616;2024-02-16T00:47:33;9.40;99.90
4904;DHT22;2467;48.142;11.616;2024-02-16T00:48:05;9.40;99.90
4904;DHT22;2467;48.142;11.616;2024-02-16T00:48:38;9.40;99.90
4904;DHT22;2467;48.142;11.616;2024-02-16T00:49:10;9.40;99.90
4904;DHT22;2467;48.142;11.616;2024-02-16T00:49:44;9.40;99.90
4904;DHT22;2467;48.142;11.616;2024-02-16T00:50:16;9.30;99.90
4904;DHT22;2467;48.142;11.616;2024-02-16T00:50:48;9.30;99.90
4904;DHT22;2467;48.142;11.616;2024-02-16T00:51:20;9.30;99.90
4904;DHT22;2467;48.142;11.616;2024-02-16T00:51:55;9.30;99.90
4904;DHT22;2467;48.142;11.616;2024-02-16T00:52:30;9.30;99.90
4904;DHT22;2467;48.142;11.616;2024-02-16T00:53:02;9.30;99.90
4904;DHT22;2467;48.142;11.616;2024-02-16T00:53:34;9.30;99.90
4904;DHT22;2467;48.142;11.616;2024-02-16T00:54:07;9.30;99.90
4904;DHT22;2467;48.142;11.616;2024-02-16T00:54:39;9.30;99.90
4904;DHT22;2467;48.142;11.616;2024-02-16T00:55:11;9.30;99.90
4904;DHT22;2467;48.142;11.616;2024-02-16T00:55:45;9.30;99.90
4904;DHT22;2467;48.142;11.616;2024-02-16T00:56:18;9.30;99.90
4904;DHT22;2467;48.142;11.616;2024-02-16T00:56:49;9.30;99.90
4904;DHT22;2467;48.142;11.616;2024-02-16T00:57:23;9.30;99.90
4904;DHT22;2467;48.142;11.616;2024-02-16T00:57:55;9.30;99.90
4904;DHT22;2467;48.142;11.616;2024-02-16T00:58:27;9.30;99.90
4904;DHT22;2467;48.142;11.616;2024-02-16T00:58:59;9.30;99.90
4904;DHT22;2467;48.142;11.616;2024-02-16T00:59:33;9.30;99.90
4904;DHT22;2467;48.142;11.616;2024-02-16T01:00:06;9.30;99.90
4904;DHT22;2467;48.142;11.616;2024-02-16T01:00:40;9.30;99.90
4904;DHT22;2467;48.142;11.616;2024-02-16T01:01:13;9.30;99.90
4904;DHT22;2467;48.142;11.616;2024-02-16T01:01:46;9.40;99.90
4904;DHT22;2467;48.142;11.616;2024-02-16T01:02:18;9.40;99.90
4904;DHT22;2467;48.142;11.616;2024-02-16T01:02:51;9.30;99.90
4904;DHT22;2467;48.142;11.616;2024-02-16T01:03:25;9.30;99.90
4904;DHT22;2467;48.142;11.616;2024-02-16T01:03:58;9.30;99.90
4904;DHT22;2467;48.142;11.616;2024-02-16T01:04:30;9.30;99.90
4904;DHT22;2467;48.142;11.616;2024-02-16T01:05:02;9.30;99.90
4904;DHT22;2467;48.142;11.616;2024-02-16T01:05:35;9.20;99.90
4904;DHT22;2467;48.142;11.616;2024-02-16T01:06:07;9.20;99.90
4904;DHT22;2467;48.142;11.616;2024-02-16T01:06:42;9.20;99.90
4904;DHT22;2467;48.142;11.616;2024-02-16T01:07:15;9.20;99.90
4904;DHT22;2467;48.142;11.616;2024-02-16T01:07:49;9.20;99.90
4904;DHT22;2467;48.142;11.616;2024-02-16T01:08:21;9.20;99.90
4904;DHT22;2467;48.142;11.616;2024-02-16T01:08:55;9.20;99.90
4904;DHT22;2467;48.142;11.616;2024-02-16T01:09:27;9.20;99.90
4904;DHT22;2467;48.142;11.616;2024-02-16T01:10:00;9.20;99.90
4904;DHT22;2467;48.142;11.616;2024-02-16T01:10:34;9.20;99.90
4904;DHT22;2467;48.142;11.616;2024-02-16T01:11:06;9.10;99.90
4904;DHT22;2467;48.142;11.616;2024-02-16T01:11:40;9.10;99.90
4904;DHT22;2467;48.142;11.616;2024-02-16T01:12:13;9.10;99.90
4904;DHT22;2467;48.142;11.616;2024-02-16T01:12:45;9.10;99.90
4904;DHT22;2467;48.142;11.616;2024-02-16T01:13:17;9.20;99.90
4904;DHT22;2467;48.142;11.616;2024-02-16T01:13:50;9.20;99.90
4904;DHT22;2467;48.142;11.616;2024-02-16T01:14:22;9.40;99.90
4904;DHT22;2467;48.142;11.616;2024-02-16T01:14:54;9.20;99.90
4904;DHT22;2467;48.142;11.616;2024-02-16T01:15:26;9.20;99.90
4904;DHT22;2467;48.142;11.616;2024-02-16T01:15:59;9.10;99.90
4904;DHT22;2467;48.142;11.616;2024-02-16T01:16:31;9.10;99.90
4904;DHT22;2467;48.142;11.616;2024-02-16T01:17:03;9.10;99.90
4904;DHT22;2467;48.142;11.616;2024-02-16T01:17:35;9.10;99.90
4904;DHT22;2467;48.142;11.616;2024-02-16T01:18:08;9.10;99.90
4904;DHT22;2467;48.142;11.616;2024-02-16T01:18:40;9.10;99.90
4904;DHT22;2467;48.142;11.616;2024-02-16T01:19:12;9.20;99.90
4904;DHT22;2467;48.142;11.616;2024-02-16T01:19:44;9.10;99.90
4904;DHT22;2467;48.142;11.616;2024-02-16T01:20:18;9.10;99.90
4904;DHT22;2467;48.142;11.616;2024-02-16T01:20:52;9.10;99.90
4904;DHT22;2467;48.142;11.616;2024-02-16T01:21:24;9.10;99.90
4904;DHT22;2467;48.142;11.616;2024-02-16T01:21:57;9.10;99.90
4904;DHT22;2467;48.142;11.616;2024-02-16T01:22:30;9.10;99.90
4904;DHT22;2467;48.142;11.616;2024-02-16T01:23:02;9.10;99.90
4904;DHT22;2467;48.142;11.616;2024-02-16T01:23:36;9.10;99.90
4904;DHT22;2467;48.142;11.616;2024-02-16T01:24:09;9.10;99.90
4904;DHT22;2467;48.142;11.616;2024-02-16T01:24:42;9.10;99.90
4904;DHT22;2467;48.142;11.616;2024-02-16T01:25:14;9.20;99.90
4904;DHT22;2467;48.142;11.616;2024-02-16T01:25:46;9.20;99.90
4904;DHT22;2467;48.142;11.616;2024-02-16T01:26:20;9.20;99.90
4904;DHT22;2467;48.142;11.616;2024-02-16T01:26:52;9.20;99.90
4904;DHT22;2467;48.142;11.616;2024-02-16T01:27:24;9.20;99.90
4904;DHT22;2467;48.142;11.616;2024-02-16T01:27:56;9.20;99.90
4904;DHT22;2467;48.142;11.616;2024-02-16T01:28:29;9.20;99.90
4904;DHT22;2467;48.142;11.616;2024-02-16T01:29:01;9.20;99.90
4904;DHT22;2467;48.142;11.616;2024-02-16T01:29:34;9.20;99.90
4904;DHT22;2467;48.142;11.616;2024-02-16T01:30:07;9.30;99.90
4904;DHT22;2467;48.142;11.616;2024-02-16T01:30:40;9.30;99.90
4904;DHT22;2467;48.142;11.616;2024-02-16T01:31:12;9.30;99.90
4904;DHT22;2467;48.142;11.616;2024-02-16T01:31:45;9.30;99.90
4904;DHT22;2467;48.142;11.616;2024-02-16T01:32:18;9.30;99.90
4904;DHT22;2467;48.142;11.616;2024-02-16T01:32:50;9.30;99.90
4904;DHT22;2467;48.142;11.616;2024-02-16T01:33:23;9.20;99.90
4904;DHT22;2467;48.142;11.616;2024-02-16T01:33:56;9.20;99.90
4904;DHT22;2467;48.142;11.616;2024-02-16T01:34:28;9.20;99.90
4904;DHT22;2467;48.142;11.616;2024-02-16T01:35:02;9.20;99.90
4904;DHT22;2467;48.142;11.616;2024-02-16T01:35:34;9.20;99.90
4904;DHT22;2467;48.142;11.616;2024-02-16T01:36:08;9.20;99.90
4904;DHT22;2467;48.142;11.616;2024-02-16T01:36:40;9.20;99.90
4904;DHT22;2467;48.142;11.616;2024-02-16T01:37:12;9.20;99.90
4904;DHT22;2467;48.142;11.616;2024-02-16T01:37:45;9.30;99.90
4904;DHT22;2467;48.142;11.616;2024-02-16T01:38:18;9.30;99.90
4904;DHT22;2467;48.142;11.616;2024-02-16T01:38:50;9.30;99.90
4904;DHT22;2467;48.142;11.616;2024-02-16T01:39:22;9.20;99.90
4904;DHT22;2467;48.142;11.616;2024-02-16T01:39:54;9.30;99.90
4904;DHT22;2467;48.142;11.616;2024-02-16T01:40:28;9.30;99.90
4904;DHT22;2467;48.142;11.616;2024-02-16T01:41:00;9.30;99.90
4904;DHT22;2467;48.142;11.616;2024-02-16T01:41:33;9.20;99.90
4904;DHT22;2467;48.142;11.616;2024-02-16T01:42:05;9.20;99.90
4904;DHT22;2467;48.142;11.616;2024-02-16T01:42:38;9.20;99.90
4904;DHT22;2467;48.142;11.616;2024-02-16T01:43:10;9.20;99.90
4904;DHT22;2467;48.142;11.616;2024-02-16T01:43:42;9.20;99.90
4904;DHT22;2467;48.142;11.616;2024-02-16T01:44:14;9.20;99.90
4904;DHT22;2467;48.142;11.616;2024-02-16T01:44:48;9.20;99.90
4904;DHT22;2467;48.142;11.616;2024-02-16T01:45:21;9.20;99.90
4904;DHT22;2467;48.142;11.616;2024-02-16T01:45:54;9.20;99.90
4904;DHT22;2467;48.142;11.616;2024-02-16T01:46:26;9.20;99.90
4904;DHT22;2467;48.142;11.616;2024-02-16T01:46:59;9.20;99.90
4904;DHT22;2467;48.142;11.616;2024-02-16T01:47:31;9.20;99.90
4904;DHT22;2467;48.142;11.616;2024-02-16T01:48:04;9.30;99.90
4904;DHT22;2467;48.142;11.616;2024-02-16T01:48:36;9.30;99.90
4904;DHT22;2467;48.142;11.616;2024-02-16T01:49:11;9.50;99.90
4904;DHT22;2467;48.142;11.616;2024-02-16T01:49:43;9.30;99.90
4904;DHT22;2467;48.142;11.616;2024-02-16T01:50:17;9.30;99.90
4904;DHT22;2467;48.142;11.616;2024-02-16T01:50:49;9.30;99.90
4904;DHT22;2467;48.142;11.616;2024-02-16T01:51:23;9.30;99.90
4904;DHT22;2467;48.142;11.616;2024-02-16T01:51:57;9.20;99.90
4904;DHT22;2467;48.142;11.616;2024-02-16T01:52:30;9.30;99.90
4904;DHT22;2467;48.142;11.616;2024-02-16T01:53:04;9.20;99.90
4904;DHT22;2467;48.142;11.616;2024-02-16T01:53:38;9.30;99.90
4904;DHT22;2467;48.142;11.616;2024-02-16T01:54:10;9.30;99.90
4904;DHT22;2467;48.142;11.616;2024-02-16T01:54:42;9.30;99.90
4904;DHT22;2467;48.142;11.616;2024-02-16T01:55:15;9.30;99.90
4904;DHT22;2467;48.142;11.616;2024-02-16T01:55:47;9.30;99.90
4904;DHT22;2467;48.142;11.616;2024-02-16T01:56:20;9.30;99.90
4904;DHT22;2467;48.142;11.616;2024-02-16T01:56:54;9.30;99.90
4904;DHT22;2467;48.142;11.616;2024-02-16T01:57:27;9.30;99.90
4904;DHT22;2467;48.142;11.616;2024-02-16T01:58:00;9.30;99.90
4904;DHT22;2467;48.142;11.616;2024-02-16T01:58:33;9.20;99.90
4904;DHT22;2467;48.142;11.616;2024-02-16T01:59:05;9.20;99.90
4904;DHT22;2467;48.142;11.616;2024-02-16T01:59:37;9.20;99.90
4904;DHT22;2467;48.142;11.616;2024-02-16T02:00:12;9.20;99.90
4904;DHT22;2467;48.142;11.616;2024-02-16T02:00:47;9.30;99.90
4904;DHT22;2467;48.142;11.616;2024-02-16T02:01:19;9.30;99.90
4904;DHT22;2467;48.142;11.616;2024-02-16T02:01:51;9.30;99.90
4904;DHT22;2467;48.142;11.616;2024-02-16T02:02:24;9.30;99.90
4904;DHT22;2467;48.142;11.616;2024-02-16T02:02:56;9.30;99.90
4904;DHT22;2467;48.142;11.616;2024-02-16T02:03:29;9.30;99.90
4904;DHT22;2467;48.142;11.616;2024-02-16T02:04:01;9.40;99.90
4904;DHT22;2467;48.142;11.616;2024-02-16T02:04:36;9.40;99.90
4904;DHT22;2467;48.142;11.616;2024-02-16T02:05:09;9.40;99.90
4904;DHT22;2467;48.142;11.616;2024-02-16T02:05:44;9.40;99.90
4904;DHT22;2467;48.142;11.616;2024-02-16T02:06:16;9.40;99.90
4904;DHT22;2467;48.142;11.616;2024-02-16T02:06:50;9.40;99.90
4904;DHT22;2467;48.142;11.616;2024-02-16T02:07:26;9.40;99.90
4904;DHT22;2467;48.142;11.616;2024-02-16T02:07:58;9.40;99.90
4904;DHT22;2467;48.142;11.616;2024-02-16T02:08:33;9.40;99.90
4904;DHT22;2467;48.142;11.616;2024-02-16T02:09:05;9.50;99.90
4904;DHT22;2467;48.142;11.616;2024-02-16T02:09:37;9.40;99.90
4904;DHT22;2467;48.142;11.616;2024-02-16T02:10:10;9.50;99.90
4904;DHT22;2467;48.142;11.616;2024-02-16T02:10:44;9.40;99.90
4904;DHT22;2467;48.142;11.616;2024-02-16T02:11:16;9.40;99.90
4904;DHT22;2467;48.142;11.616;2024-02-16T02:11:48;9.40;99.90
4904;DHT22;2467;48.142;11.616;2024-02-16T02:12:21;9.40;99.90
4904;DHT22;2467;48.142;11.616;2024-02-16T02:12:54;9.40;99.90
4904;DHT22;2467;48.142;11.616;2024-02-16T02:13:27;9.40;99.90
4904;DHT22;2467;48.142;11.616;2024-02-16T02:13:59;9.40;99.90
4904;DHT22;2467;48.142;11.616;2024-02-16T02:14:31;9.40;99.90
4904;DHT22;2467;48.142;11.616;2024-02-16T02:15:04;9.40;99.90
4904;DHT22;2467;48.142;11.616;2024-02-16T02:15:37;9.40;99.90
4904;DHT22;2467;48.142;11.616;2024-02-16T02:16:10;9.40;99.90
4904;DHT22;2467;48.142;11.616;2024-02-16T02:16:42;9.40;99.90
4904;DHT22;2467;48.142;11.616;2024-02-16T02:17:26;9.40;99.90
4904;DHT22;2467;48.142;11.616;2024-02-16T02:17:59;9.40;99.90
4904;DHT22;2467;48.142;11.616;2024-02-16T02:18:31;9.40;99.90
4904;DHT22;2467;48.142;11.616;2024-02-16T02:19:04;9.40;99.90
4904;DHT22;2467;48.142;11.616;2024-02-16T02:19:37;9.40;99.90
4904;DHT22;2467;48.142;11.616;2024-02-16T02:20:10;9.40;99.90
4904;DHT22;2467;48.142;11.616;2024-02-16T02:20:43;9.40;99.90
4904;DHT22;2467;48.142;11.616;2024-02-16T02:21:16;9.40;99.90
4904;DHT22;2467;48.142;11.616;2024-02-16T02:21:49;9.50;99.90
4904;DHT22;2467;48.142;11.616;2024-02-16T02:22:23;9.50;99.90
4904;DHT22;2467;48.142;11.616;2024-02-16T02:22:55;9.50;99.90
4904;DHT22;2467;48.142;11.616;2024-02-16T02:23:27;9.50;99.90
4904;DHT22;2467;48.142;11.616;2024-02-16T02:24:00;9.50;99.90
4904;DHT22;2467;48.142;11.616;2024-02-16T02:24:32;9.50;99.90
4904;DHT22;2467;48.142;11.616;2024-02-16T02:25:05;9.50;99.90
4904;DHT22;2467;48.142;11.616;2024-02-16T02:25:37;9.50;99.90
4904;DHT22;2467;48.142;11.616;2024-02-16T02:26:14;9.50;99.90
4904;DHT22;2467;48.142;11.616;2024-02-16T02:26:48;9.50;99.90
4904;DHT22;2467;48.142;11.616;2024-02-16T02:27:20;9.50;99.90
4904;DHT22;2467;48.142;11.616;2024-02-16T02:27:52;9.50;99.90
4904;DHT22;2467;48.142;11.616;2024-02-16T02:28:24;9.40;99.90
4904;DHT22;2467;48.142;11.616;2024-02-16T02:28:57;9.40;99.90
4904;DHT22;2467;48.142;11.616;2024-02-16T02:29:29;9.50;99.90
4904;DHT22;2467;48.142;11.616;2024-02-16T02:30:01;9.50;99.90
4904;DHT22;2467;48.142;11.616;2024-02-16T02:30:33;9.50;99.90
4904;DHT22;2467;48.142;11.616;2024-02-16T02:31:06;9.50;99.90
4904;DHT22;2467;48.142;11.616;2024-02-16T02:31:40;9.50;99.90
4904;DHT22;2467;48.142;11.616;2024-02-16T02:32:12;9.50;99.90
4904;DHT22;2467;48.142;11.616;2024-02-16T02:32:44;9.50;99.90
4904;DHT22;2467;48.142;11.616;2024-02-16T02:33:17;9.50;99.90
4904;DHT22;2467;48.142;11.616;2024-02-16T02:33:50;9.60;99.90
4904;DHT22;2467;48.142;11.616;2024-02-16T02:34:22;9.60;99.90
4904;DHT22;2467;48.142;11.616;2024-02-16T02:34:55;9.60;99.90
4904;DHT22;2467;48.142;11.616;2024-02-16T02:35:27;9.60;99.90
4904;DHT22;2467;48.142;11.616;2024-02-16T02:35:59;9.60;99.90
4904;DHT22;2467;48.142;11.616;2024-02-16T02:36:31;9.60;99.90
4904;DHT22;2467;48.142;11.616;2024-02-16T02:37:05;9.60;99.90
4904;DHT22;2467;48.142;11.616;2024-02-16T02:37:38;9.60;99.90
4904;DHT22;2467;48.142;11.616;2024-02-16T02:38:10;9.60;99.90
4904;DHT22;2467;48.142;11.616;2024-02-16T02:38:43;9.70;99.90
4904;DHT22;2467;48.142;11.616;2024-02-16T02:39:16;9.60;99.90
4904;DHT22;2467;48.142;11.616;2024-02-16T02:39:48;9.60;99.90
4904;DHT22;2467;48.142;11.616;2024-02-16T02:40:20;9.60;99.90
4904;DHT22;2467;48.142;11.616;2024-02-16T02:40:52;9.70;99.90
4904;DHT22;2467;48.142;11.616;2024-02-16T02:41:25;9.60;99.90
4904;DHT22;2467;48.142;11.616;2024-02-16T02:41:57;9.60;99.90
4904;DHT22;2467;48.142;11.616;2024-02-16T02:42:29;9.70;99.90
4904;DHT22;2467;48.142;11.616;2024-02-16T02:43:01;9.70;99.90
4904;DHT22;2467;48.142;11.616;2024-02-16T02:43:33;9.70;99.90
4904;DHT22;2467;48.142;11.616;2024-02-16T02:44:06;9.70;99.90
4904;DHT22;2467;48.142;11.616;2024-02-16T02:44:38;9.80;99.90
4904;DHT22;2467;48.142;11.616;2024-02-16T02:45:10;9.70;99.90
4904;DHT22;2467;48.142;11.616;2024-02-16T02:45:43;9.70;99.90
4904;DHT22;2467;48.142;11.616;2024-02-16T02:46:16;9.70;99.90
4904;DHT22;2467;48.142;11.616;2024-02-16T02:46:48;9.70;99.90
4904;DHT22;2467;48.142;11.616;2024-02-16T02:47:20;9.70;99.90
4904;DHT22;2467;48.142;11.616;2024-02-16T02:47:52;9.70;99.90
4904;DHT22;2467;48.142;11.616;2024-02-16T02:48:25;9.60;99.90
4904;DHT22;2467;48.142;11.616;2024-02-16T02:48:58;9.70;99.90
4904;DHT22;2467;48.142;11.616;2024-02-16T02:49:30;9.60;99.90
4904;DHT22;2467;48.142;11.616;2024-02-16T02:50:06;9.60;99.90
4904;DHT22;2467;48.142;11.616;2024-02-16T02:50:38;9.60;99.90
4904;DHT22;2467;48.142;11.616;2024-02-16T02:51:10;9.60;99.90
4904;DHT22;2467;48.142;11.616;2024-02-16T02:51:43;9.60;99.90
4904;DHT22;2467;48.142;11.616;2024-02-16T02:52:15;9.60;99.90
4904;DHT22;2467;48.142;11.616;2024-02-16T02:52:49;9.60;99.90
4904;DHT22;2467;48.142;11.616;2024-02-16T02:53:22;9.60;99.90
4904;DHT22;2467;48.142;11.616;2024-02-16T02:53:54;9.60;99.90
4904;DHT22;2467;48.142;11.616;2024-02-16T02:54:26;9.60;99.90
4904;DHT22;2467;48.142;11.616;2024-02-16T02:54:58;9.60;99.90
4904;DHT22;2467;48.142;11.616;2024-02-16T02:55:31;9.70;99.90
4904;DHT22;2467;48.142;11.616;2024-02-16T02:56:04;9.70;99.90
4904;DHT22;2467;48.142;11.616;2024-02-16T02:56:36;9.70;99.90
4904;DHT22;2467;48.142;11.616;2024-02-16T02:57:08;9.70;99.90
4904;DHT22;2467;48.142;11.616;2024-02-16T02:57:41;9.70;99.90
4904;DHT22;2467;48.142;11.616;2024-02-16T02:58:13;9.60;99.90
4904;DHT22;2467;48.142;11.616;2024-02-16T02:58:45;9.70;99.90
4904;DHT22;2467;48.142;11.616;2024-02-16T02:59:18;9.60;99.90
4904;DHT22;2467;48.142;11.616;2024-02-16T02:59:50;9.60;99.90
4904;DHT22;2467;48.142;11.616;2024-02-16T03:00:22;9.70;99.90
4904;DHT22;2467;48.142;11.616;2024-02-16T03:00:55;9.80;99.90
4904;DHT22;2467;48.142;11.616;2024-02-16T03:01:28;9.70;99.90
4904;DHT22;2467;48.142;11.616;2024-02-16T03:02:00;9.70;99.90
4904;DHT22;2467;48.142;11.616;2024-02-16T03:02:32;9.70;99.90
4904;DHT22;2467;48.142;11.616;2024-02-16T03:03:04;9.70;99.90
4904;DHT22;2467;48.142;11.616;2024-02-16T03:03:38;9.70;99.90
4904;DHT22;2467;48.142;11.616;2024-02-16T03:04:10;9.70;99.90
4904;DHT22;2467;48.142;11.616;2024-02-16T03:04:42;9.70;99.90
4904;DHT22;2467;48.142;11.616;2024-02-16T03:05:15;9.70;99.90
4904;DHT22;2467;48.142;11.616;2024-02-16T03:05:48;9.70;99.90
4904;DHT22;2467;48.142;11.616;2024-02-16T03:06:21;9.70;99.90
4904;DHT22;2467;48.142;11.616;2024-02-16T03:06:53;9.70;99.90
4904;DHT22;2467;48.142;11.616;2024-02-16T03:07:26;9.70;99.90
4904;DHT22;2467;48.142;11.616;2024-02-16T03:08:00;9.70;99.90
4904;DHT22;2467;48.142;11.616;2024-02-16T03:08:33;9.60;99.90
4904;DHT22;2467;48.142;11.616;2024-02-16T03:09:06;9.60;99.90
4904;DHT22;2467;48.142;11.616;2024-02-16T03:09:40;9.60;99.90
4904;DHT22;2467;48.142;11.616;2024-02-16T03:10:15;9.60;99.90
4904;DHT22;2467;48.142;11.616;2024-02-16T03:10:52;9.60;99.90
4904;DHT22;2467;48.142;11.616;2024-02-16T03:11:25;9.60;99.90
4904;DHT22;2467;48.142;11.616;2024-02-16T03:11:58;9.50;99.90
4904;DHT22;2467;48.142;11.616;2024-02-16T03:12:31;9.50;99.90
4904;DHT22;2467;48.142;11.616;2024-02-16T03:13:04;9.50;99.90
4904;DHT22;2467;48.142;11.616;2024-02-16T03:13:38;9.50;99.90
4904;DHT22;2467;48.142;11.616;2024-02-16T03:14:11;9.50;99.90
4904;DHT22;2467;48.142;11.616;2024-02-16T03:14:43;9.50;99.90
4904;DHT22;2467;48.142;11.616;2024-02-16T03:15:16;9.40;99.90
4904;DHT22;2467;48.142;11.616;2024-02-16T03:15:49;9.40;99.90
4904;DHT22;2467;48.142;11.616;2024-02-16T03:16:21;9.40;99.90
4904;DHT22;2467;48.142;11.616;2024-02-16T03:16:53;9.40;99.90
4904;DHT22;2467;48.142;11.616;2024-02-16T03:17:25;9.40;99.90
4904;DHT22;2467;48.142;11.616;2024-02-16T03:17:58;9.30;99.90
4904;DHT22;2467;48.142;11.616;2024-02-16T03:18:31;9.30;99.90
4904;DHT22;2467;48.142;11.616;2024-02-16T03:19:06;9.40;99.90
4904;DHT22;2467;48.142;11.616;2024-02-16T03:19:38;9.30;99.90
4904;DHT22;2467;48.142;11.616;2024-02-16T03:20:11;9.30;99.90
4904;DHT22;2467;48.142;11.616;2024-02-16T03:20:43;9.30;99.90
4904;DHT22;2467;48.142;11.616;2024-02-16T03:21:18;9.40;99.90
4904;DHT22;2467;48.142;11.616;2024-02-16T03:21:50;9.40;99.90
4904;DHT22;2467;48.142;11.616;2024-02-16T03:22:23;9.40;99.90
4904;DHT22;2467;48.142;11.616;2024-02-16T03:22:55;9.40;99.90
4904;DHT22;2467;48.142;11.616;2024-02-16T03:23:29;9.40;99.90
4904;DHT22;2467;48.142;11.616;2024-02-16T03:24:01;9.40;99.90
4904;DHT22;2467;48.142;11.616;2024-02-16T03:24:35;9.40;99.90
4904;DHT22;2467;48.142;11.616;2024-02-16T03:25:08;9.40;99.90
4904;DHT22;2467;48.142;11.616;2024-02-16T03:25:40;9.40;99.90
4904;DHT22;2467;48.142;11.616;2024-02-16T03:26:15;9.40;99.90
4904;DHT22;2467;48.142;11.616;2024-02-16T03:26:47;9.50;99.90
4904;DHT22;2467;48.142;11.616;2024-02-16T03:27:21;9.50;99.90
4904;DHT22;2467;48.142;11.616;2024-02-16T03:27:53;9.50;99.90
4904;DHT22;2467;48.142;11.616;2024-02-16T03:28:25;9.50;99.90
4904;DHT22;2467;48.142;11.616;2024-02-16T03:28:57;9.50;99.90
4904;DHT22;2467;48.142;11.616;2024-02-16T03:29:30;9.50;99.90
4904;DHT22;2467;48.142;11.616;2024-02-16T03:30:02;9.50;99.90
4904;DHT22;2467;48.142;11.616;2024-02-16T03:30:35;9.50;99.90
4904;DHT22;2467;48.142;11.616;2024-02-16T03:31:14;9.50;99.90
4904;DHT22;2467;48.142;11.616;2024-02-16T03:31:46;9.50;99.90
4904;DHT22;2467;48.142;11.616;2024-02-16T03:32:18;9.50;99.90
4904;DHT22;2467;48.142;11.616;2024-02-16T03:32:50;9.50;99.90
4904;DHT22;2467;48.142;11.616;2024-02-16T03:33:24;9.50;99.90
4904;DHT22;2467;48.142;11.616;2024-02-16T03:33:56;9.50;99.90